Wellston, Michigan
Current Conditions -  °F | °C
As of 11:35 PM on Tuesday 21 Oct 2014 (Local Time) from KMBL Reporting Station
Clear Clear  
Wind Chill: -1°   Ceiling: Unl
Heat Index: -1°   Visibility: 10mi
Dew Point: -3°   Wind: 3mph
Humidity: 86%   Direction: 80°E
Pressure: 30.3"   Gusts: NA
Location:  44.22°N, 85.96°W
Report Text: KMBL 220335Z AUTO 08003KT 10SM CLR M01/M03 A3030 RMK AO1
Loading
Personal Weather Stations






























Interactive Weather Map
Tropical Storm Tracking
New forecast layout! Learn more

10-Day Weather Forecast

Advertisements
Track Severe Weather on mobile